Time;durP1;ratioP1;P1;durP2;ratioP2;P2;SDS_P1;SDS_P2;PMS_P1;PMS_P2;Temp;Humidity;BMP_temperature;BMP_pressure;BME280_temperature;BME280_humidity;BME280_pressure;Samples;Min_cycle;Max_cycle;Signal;HPM_P1;HPM_P2
2022/07/11 00:02:24;;;;;;;1.37;0.30;;;12.60;99.90;;;;;;5077454;28;20918;-94
2022/07/11 00:04:51;;;;;;;1.73;0.73;;;12.60;99.90;;;;;;5078713;28;20813;-94
2022/07/11 00:07:18;;;;;;;0.43;0.37;;;12.60;99.90;;;;;;5074169;28;20483;-94
2022/07/11 00:09:45;;;;;;;0.40;0.30;;;12.60;99.90;;;;;;5078070;28;20469;-94
2022/07/11 00:12:12;;;;;;;0.40;0.30;;;12.60;99.90;;;;;;5071310;28;20463;-94
2022/07/11 00:14:40;;;;;;;0.40;0.30;;;12.70;99.90;;;;;;5067944;28;20565;-93
2022/07/11 00:17:08;;;;;;;0.47;0.37;;;12.60;99.90;;;;;;5073674;28;21063;-94
2022/07/11 00:19:37;;;;;;;0.40;0.30;;;12.60;99.90;;;;;;5070997;28;20472;-94
2022/07/11 00:22:05;;;;;;;0.50;0.50;;;12.60;99.90;;;;;;5067978;28;20524;-94
2022/07/11 00:24:32;;;;;;;0.40;0.30;;;12.60;99.90;;;;;;5073139;28;20509;-94
2022/07/11 00:26:59;;;;;;;0.50;0.30;;;12.60;99.90;;;;;;5064365;28;20438;-93
2022/07/11 00:29:26;;;;;;;0.40;0.40;;;12.60;99.90;;;;;;5073791;28;20472;-94
2022/07/11 00:31:53;;;;;;;0.43;0.30;;;12.60;99.90;;;;;;5076266;28;20540;-94
2022/07/11 00:34:21;;;;;;;0.40;0.30;;;12.60;99.90;;;;;;5077002;28;20587;-94
2022/07/11 00:36:49;;;;;;;0.40;0.30;;;12.60;99.90;;;;;;5070567;28;20455;-93
2022/07/11 00:39:16;;;;;;;0.50;0.40;;;12.60;99.90;;;;;;5075817;28;20567;-94
2022/07/11 00:41:43;;;;;;;0.40;0.40;;;12.60;99.90;;;;;;5079594;28;20456;-94
2022/07/11 00:44:11;;;;;;;0.47;0.40;;;12.60;99.90;;;;;;5076256;28;20472;-93
2022/07/11 00:46:38;;;;;;;0.33;0.20;;;12.60;99.90;;;;;;5072218;28;20475;-94
2022/07/11 00:49:05;;;;;;;0.50;0.40;;;12.60;99.90;;;;;;5074329;28;20523;-94
2022/07/11 00:51:32;;;;;;;0.90;0.30;;;12.50;99.90;;;;;;5079196;28;20460;-94
2022/07/11 00:54:02;;;;;;;0.60;0.60;;;12.60;99.90;;;;;;5081004;28;20460;-94
2022/07/11 00:56:31;;;;;;;1.27;0.40;;;12.50;99.90;;;;;;5074176;28;20512;-94
2022/07/11 00:58:59;;;;;;;0.40;0.30;;;12.50;99.90;;;;;;5077433;28;20751;-94
2022/07/11 01:01:26;;;;;;;1.37;0.40;;;12.50;99.90;;;;;;5076747;28;20473;-93
2022/07/11 01:03:54;;;;;;;3.90;0.50;;;12.50;99.90;;;;;;5078989;28;20703;-94
2022/07/11 01:06:21;;;;;;;1.80;0.40;;;12.50;99.90;;;;;;5077533;28;20533;-93
2022/07/11 01:08:48;;;;;;;2.10;0.40;;;12.50;99.90;;;;;;5075484;28;21013;-94
2022/07/11 01:11:18;;;;;;;0.73;0.30;;;12.40;99.90;;;;;;5080372;28;20468;-94
2022/07/11 01:13:46;;;;;;;2.33;0.30;;;12.30;99.90;;;;;;5071313;28;20551;-94
2022/07/11 01:16:15;;;;;;;0.83;0.37;;;12.30;99.90;;;;;;5073992;28;20519;-93
2022/07/11 01:18:44;;;;;;;0.40;0.30;;;12.20;99.90;;;;;;5069595;28;20549;-94
2022/07/11 01:21:38;;;;;;;0.50;0.40;;;12.10;99.90;;;;;;5065682;28;20452;-93
2022/07/11 01:24:08;;;;;;;0.40;0.30;;;12.00;99.90;;;;;;5064227;28;20480;-93
2022/07/11 01:26:35;;;;;;;0.40;0.40;;;12.00;99.90;;;;;;5081064;28;20471;-92
2022/07/11 01:29:06;;;;;;;0.53;0.53;;;11.90;99.90;;;;;;5078420;28;20852;-93
2022/07/11 01:31:33;;;;;;;1.33;0.50;;;11.90;99.90;;;;;;5081408;28;20529;-94
2022/07/11 01:34:00;;;;;;;0.70;0.40;;;11.80;99.90;;;;;;5074283;28;20515;-94
2022/07/11 01:36:27;;;;;;;0.50;0.50;;;11.70;99.90;;;;;;5077727;28;20494;-94
2022/07/11 01:38:54;;;;;;;0.50;0.30;;;11.60;99.90;;;;;;5071308;28;21032;-93
2022/07/11 01:41:23;;;;;;;0.40;0.30;;;11.60;99.90;;;;;;5078925;28;20516;-94
2022/07/11 01:43:50;;;;;;;0.90;0.57;;;11.60;99.90;;;;;;5073403;28;20470;-93
2022/07/11 01:46:18;;;;;;;0.50;0.40;;;11.60;99.90;;;;;;5074485;28;20508;-94
2022/07/11 01:48:45;;;;;;;0.40;0.40;;;11.60;99.90;;;;;;5082229;28;20495;-94
2022/07/11 01:51:12;;;;;;;0.50;0.37;;;11.60;99.90;;;;;;5069873;28;20797;-94
2022/07/11 01:53:39;;;;;;;0.40;0.27;;;11.60;99.90;;;;;;5072309;28;20797;-94
2022/07/11 01:56:07;;;;;;;1.47;0.47;;;11.50;99.90;;;;;;5067921;28;21121;-93
2022/07/11 01:58:35;;;;;;;0.90;0.40;;;11.50;99.90;;;;;;5079198;28;20552;-94
2022/07/11 02:01:02;;;;;;;2.97;0.47;;;11.60;99.90;;;;;;5077332;28;20931;-94
2022/07/11 02:03:29;;;;;;;1.13;0.33;;;11.60;99.90;;;;;;5077212;28;20467;-95
2022/07/11 02:05:56;;;;;;;0.50;0.40;;;11.70;99.90;;;;;;5076997;28;20467;-94
2022/07/11 02:08:23;;;;;;;0.40;0.30;;;11.70;99.90;;;;;;5069107;28;20515;-93
2022/07/11 02:10:52;;;;;;;2.30;0.50;;;11.70;99.90;;;;;;5085206;28;20921;-93
2022/07/11 02:13:21;;;;;;;0.40;0.30;;;11.60;99.90;;;;;;5072150;28;20533;-94
2022/07/11 02:15:50;;;;;;;0.40;0.40;;;11.60;99.90;;;;;;5077325;28;20517;-94
2022/07/11 02:18:18;;;;;;;0.50;0.40;;;11.60;99.90;;;;;;5077638;28;20850;-94
2022/07/11 02:20:48;;;;;;;1.43;0.43;;;11.60;99.90;;;;;;5077723;28;20516;-93
2022/07/11 02:23:16;;;;;;;0.60;0.40;;;11.60;99.90;;;;;;5073141;28;20545;-94
2022/07/11 02:25:43;;;;;;;1.00;0.40;;;11.70;99.90;;;;;;5081152;28;20985;-94
2022/07/11 02:28:10;;;;;;;1.17;0.50;;;11.80;99.90;;;;;;5082339;28;20487;-94
2022/07/11 02:30:38;;;;;;;0.40;0.30;;;11.80;99.90;;;;;;5074369;28;20529;-93
2022/07/11 02:33:07;;;;;;;0.60;0.37;;;11.80;99.90;;;;;;5074981;28;20532;-94
2022/07/11 02:35:35;;;;;;;0.50;0.40;;;11.90;99.90;;;;;;5075498;28;20482;-94
2022/07/11 02:38:02;;;;;;;0.47;0.40;;;11.90;99.90;;;;;;5077253;28;20800;-94
2022/07/11 02:40:29;;;;;;;0.87;0.40;;;12.00;99.90;;;;;;5080963;28;20488;-94
2022/07/11 02:42:56;;;;;;;0.50;0.40;;;12.10;99.90;;;;;;5078903;28;20540;-94
2022/07/11 02:45:24;;;;;;;0.40;0.40;;;12.10;99.90;;;;;;5077089;28;20456;-94
2022/07/11 02:47:51;;;;;;;1.60;0.47;;;12.20;99.90;;;;;;5077617;28;20586;-93
2022/07/11 02:50:19;;;;;;;0.60;0.50;;;12.20;99.90;;;;;;5076014;28;20801;-93
2022/07/11 02:52:46;;;;;;;0.40;0.40;;;12.30;99.90;;;;;;5080053;28;20525;-94
2022/07/11 02:55:15;;;;;;;0.60;0.50;;;12.30;99.90;;;;;;5070843;28;21070;-94
2022/07/11 02:57:42;;;;;;;0.60;0.40;;;12.30;99.90;;;;;;5076876;28;20529;-93
2022/07/11 03:00:13;;;;;;;1.30;0.43;;;12.30;99.90;;;;;;5069642;28;20464;-94
2022/07/11 03:02:40;;;;;;;0.60;0.50;;;12.40;99.90;;;;;;5073561;28;20468;-93
2022/07/11 03:05:08;;;;;;;0.50;0.40;;;12.40;99.90;;;;;;5074120;28;20560;-93
2022/07/11 03:07:36;;;;;;;0.40;0.40;;;12.40;99.90;;;;;;5080099;28;20454;-93
2022/07/11 03:10:04;;;;;;;0.80;0.40;;;12.40;99.90;;;;;;5073224;28;20487;-94
2022/07/11 03:12:31;;;;;;;0.40;0.30;;;12.40;99.90;;;;;;5079030;28;20696;-94
2022/07/11 03:14:58;;;;;;;0.40;0.30;;;12.40;99.90;;;;;;5073395;28;20609;-93
2022/07/11 03:17:25;;;;;;;1.83;0.40;;;12.50;99.90;;;;;;5079118;28;20451;-94
2022/07/11 03:19:52;;;;;;;0.40;0.40;;;12.50;99.90;;;;;;5079549;28;20497;-94
2022/07/11 03:22:19;;;;;;;0.40;0.30;;;12.50;99.90;;;;;;5075977;28;20468;-94
2022/07/11 03:24:47;;;;;;;1.93;0.73;;;12.60;99.90;;;;;;5079204;28;20808;-94
2022/07/11 03:27:14;;;;;;;0.50;0.50;;;12.60;99.90;;;;;;5066791;28;20874;-94
2022/07/11 03:29:42;;;;;;;0.50;0.40;;;12.60;99.90;;;;;;5076485;28;20548;-93
2022/07/11 03:32:09;;;;;;;0.97;0.57;;;12.60;99.90;;;;;;5074983;28;20533;-94
2022/07/11 03:34:36;;;;;;;1.30;0.40;;;12.60;99.90;;;;;;5071446;28;20528;-94
2022/07/11 03:37:04;;;;;;;0.80;0.40;;;12.60;99.90;;;;;;5072543;28;20778;-94
2022/07/11 03:39:31;;;;;;;0.40;0.40;;;12.60;99.90;;;;;;5073948;28;20810;-94
2022/07/11 03:42:00;;;;;;;0.40;0.30;;;12.60;99.90;;;;;;5075337;28;20500;-93
2022/07/11 03:44:27;;;;;;;0.40;0.30;;;12.60;99.90;;;;;;5069380;28;20524;-93
2022/07/11 03:46:54;;;;;;;0.90;0.37;;;12.60;99.90;;;;;;5074890;28;20459;-94
2022/07/11 03:49:21;;;;;;;0.70;0.50;;;12.70;99.90;;;;;;5075812;28;20514;-94
2022/07/11 03:51:48;;;;;;;0.50;0.40;;;12.70;99.90;;;;;;5073886;28;20532;-93
2022/07/11 03:54:15;;;;;;;0.50;0.50;;;12.70;99.90;;;;;;5068616;28;20540;-94
2022/07/11 03:56:42;;;;;;;0.40;0.30;;;12.70;99.90;;;;;;5072047;28;20711;-94
2022/07/11 03:59:10;;;;;;;0.53;0.40;;;12.80;99.90;;;;;;5067984;28;20463;-94
2022/07/11 04:01:37;;;;;;;2.83;0.60;;;12.80;99.90;;;;;;5069562;28;20533;-94
2022/07/11 04:04:08;;;;;;;0.40;0.30;;;12.90;99.90;;;;;;5076834;28;20463;-94
2022/07/11 04:06:35;;;;;;;0.40;0.30;;;12.90;99.90;;;;;;5068130;28;20601;-94
2022/07/11 04:09:02;;;;;;;0.40;0.30;;;12.90;99.90;;;;;;5073501;28;20961;-93
2022/07/11 04:11:29;;;;;;;0.50;0.50;;;13.00;99.90;;;;;;5077207;28;21133;-93
2022/07/11 04:13:57;;;;;;;1.70;0.40;;;13.00;99.90;;;;;;5075796;28;20833;-93
2022/07/11 04:16:25;;;;;;;0.50;0.40;;;13.10;99.90;;;;;;5085092;28;20472;-94
2022/07/11 04:18:52;;;;;;;0.40;0.40;;;13.10;99.90;;;;;;5073915;28;20472;-94
2022/07/11 04:21:19;;;;;;;0.40;0.30;;;13.20;99.90;;;;;;5074936;28;20993;-94
2022/07/11 04:23:47;;;;;;;0.40;0.30;;;13.20;99.90;;;;;;5075922;28;20481;-93
2022/07/11 04:26:14;;;;;;;1.33;0.50;;;13.30;99.90;;;;;;5072356;28;20454;-94
2022/07/11 04:28:41;;;;;;;0.60;0.43;;;13.30;99.90;;;;;;5072894;28;20484;-94
2022/07/11 04:31:10;;;;;;;1.00;0.47;;;13.40;99.90;;;;;;5078226;28;20471;-94
2022/07/11 04:33:38;;;;;;;0.50;0.40;;;13.50;99.90;;;;;;5081269;28;20550;-94
2022/07/11 04:36:06;;;;;;;0.70;0.40;;;13.60;99.90;;;;;;5077916;28;20457;-94
2022/07/11 04:38:33;;;;;;;0.63;0.40;;;13.70;99.90;;;;;;5076781;28;20938;-95
2022/07/11 04:41:00;;;;;;;0.63;0.50;;;13.80;99.90;;;;;;5075009;28;20902;-94
2022/07/11 04:43:27;;;;;;;1.33;0.40;;;13.90;99.90;;;;;;5077424;28;20516;-94
2022/07/11 04:45:54;;;;;;;0.40;0.30;;;13.90;99.90;;;;;;5085595;28;20468;-95
2022/07/11 04:48:21;;;;;;;0.40;0.37;;;13.80;99.90;;;;;;5077617;28;20852;-94
2022/07/11 04:50:51;;;;;;;1.27;0.40;;;13.80;99.90;;;;;;5085623;28;20480;-94
2022/07/11 04:53:17;;;;;;;1.03;0.40;;;13.80;99.90;;;;;;5081417;28;20911;-94
2022/07/11 04:55:44;;;;;;;0.40;0.30;;;13.90;99.90;;;;;;5071733;28;20473;-94
2022/07/11 04:58:12;;;;;;;0.40;0.33;;;14.00;99.90;;;;;;5083414;28;20465;-95
2022/07/11 05:00:39;;;;;;;0.40;0.40;;;14.00;99.90;;;;;;5071721;28;20519;-94
2022/07/11 05:03:06;;;;;;;2.80;0.80;;;14.00;99.90;;;;;;5071673;28;20524;-92
2022/07/11 05:05:33;;;;;;;1.00;0.40;;;14.10;99.90;;;;;;5075920;28;20455;-92
2022/07/11 05:08:01;;;;;;;0.70;0.40;;;14.10;99.90;;;;;;5078770;28;20469;-93
2022/07/11 05:10:31;;;;;;;0.40;0.40;;;14.20;99.90;;;;;;5072835;28;20964;-94
2022/07/11 05:12:58;;;;;;;0.60;0.40;;;14.20;99.90;;;;;;5090901;28;20486;-92
2022/07/11 05:15:25;;;;;;;0.40;0.40;;;14.20;99.90;;;;;;5091517;28;20466;-93
2022/07/11 05:17:52;;;;;;;0.40;0.30;;;14.30;99.90;;;;;;5078135;28;20850;-92
2022/07/11 05:20:19;;;;;;;0.60;0.60;;;14.30;99.90;;;;;;5071868;28;20457;-93
2022/07/11 05:22:46;;;;;;;0.80;0.40;;;14.40;99.90;;;;;;5077758;28;20470;-93
2022/07/11 05:25:15;;;;;;;0.70;0.33;;;14.30;99.90;;;;;;5073721;28;20941;-93
2022/07/11 05:27:42;;;;;;;1.07;0.60;;;14.40;99.90;;;;;;5075684;28;20462;-93
2022/07/11 05:30:10;;;;;;;0.67;0.50;;;14.50;99.90;;;;;;5068207;28;20498;-92
2022/07/11 05:32:37;;;;;;;0.50;0.40;;;14.50;99.90;;;;;;5079006;28;20959;-93
2022/07/11 05:35:05;;;;;;;0.73;0.73;;;14.60;99.90;;;;;;5071902;28;20451;-92
2022/07/11 05:37:32;;;;;;;2.07;0.80;;;14.70;99.90;;;;;;5077042;28;20454;-93
2022/07/11 05:39:59;;;;;;;0.70;0.40;;;14.80;99.90;;;;;;5079635;28;20660;-91
2022/07/11 05:42:28;;;;;;;0.50;0.50;;;15.00;99.90;;;;;;5070603;28;20528;-92
2022/07/11 05:44:55;;;;;;;0.77;0.40;;;15.10;99.90;;;;;;5080664;28;20469;-92
2022/07/11 05:47:22;;;;;;;0.67;0.40;;;15.30;99.80;;;;;;5073606;28;20452;-92
2022/07/11 05:49:50;;;;;;;0.47;0.40;;;15.30;99.70;;;;;;5077227;28;20746;-92
2022/07/11 05:52:17;;;;;;;0.70;0.50;;;15.50;98.80;;;;;;5075046;28;21030;-92
2022/07/11 05:54:44;;;;;;;2.97;1.47;;;15.60;98.70;;;;;;5073086;28;20472;-92
2022/07/11 05:57:11;;;;;;;1.30;0.50;;;15.60;99.10;;;;;;5077372;28;20507;-93
2022/07/11 05:59:39;;;;;;;0.80;0.80;;;15.70;98.90;;;;;;5080925;28;21246;-92
2022/07/11 06:02:06;;;;;;;0.73;0.40;;;15.70;98.40;;;;;;5069399;28;20454;-93
2022/07/11 06:04:34;;;;;;;0.40;0.40;;;15.70;98.10;;;;;;5083046;28;20460;-93
2022/07/11 06:07:01;;;;;;;0.97;0.40;;;15.70;98.00;;;;;;5074350;28;20466;-94
2022/07/11 06:09:28;;;;;;;0.63;0.30;;;15.80;97.80;;;;;;5081654;28;20896;-95
2022/07/11 06:11:55;;;;;;;0.60;0.40;;;15.80;98.20;;;;;;5075261;28;20517;-94
2022/07/11 06:14:22;;;;;;;0.50;0.50;;;15.70;97.70;;;;;;5075827;28;20873;-94
2022/07/11 06:16:50;;;;;;;0.80;0.50;;;15.80;97.80;;;;;;5068106;28;20466;-95
2022/07/11 06:19:18;;;;;;;0.47;0.40;;;15.70;98.10;;;;;;5069908;28;20967;-95
2022/07/11 06:21:45;;;;;;;0.50;0.40;;;15.90;98.40;;;;;;5080143;28;20532;-96
2022/07/11 06:24:12;;;;;;;1.03;0.40;;;15.90;98.20;;;;;;5078057;28;20460;-94
2022/07/11 06:26:39;;;;;;;0.83;0.40;;;15.90;98.50;;;;;;5075344;28;20517;-96
2022/07/11 06:29:07;;;;;;;0.80;0.67;;;15.80;98.10;;;;;;5074286;28;20455;-91
2022/07/11 06:31:34;;;;;;;0.80;0.67;;;15.70;98.60;;;;;;5067662;28;20469;-93
2022/07/11 06:34:03;;;;;;;1.27;0.40;;;15.70;98.90;;;;;;5073919;28;20501;-95
2022/07/11 06:36:30;;;;;;;0.50;0.40;;;15.90;99.60;;;;;;5079923;28;20528;-95
2022/07/11 06:38:57;;;;;;;0.40;0.40;;;16.00;98.80;;;;;;5074849;28;20482;-94
2022/07/11 06:41:24;;;;;;;0.50;0.47;;;15.90;98.50;;;;;;5073188;28;20474;-95
2022/07/11 06:43:51;;;;;;;1.87;0.43;;;16.00;98.90;;;;;;5072104;28;20551;-96
2022/07/11 06:46:18;;;;;;;1.07;0.40;;;16.10;98.50;;;;;;5072359;28;20951;-96
2022/07/11 06:48:45;;;;;;;0.50;0.40;;;16.20;97.90;;;;;;5074725;28;20462;-95
2022/07/11 06:51:14;;;;;;;0.40;0.30;;;16.20;98.20;;;;;;5073310;28;20566;-94
2022/07/11 06:53:41;;;;;;;1.40;0.50;;;16.10;98.30;;;;;;5081728;28;20468;-96
2022/07/11 06:56:08;;;;;;;0.50;0.47;;;16.00;98.10;;;;;;5074171;28;20461;-96
2022/07/11 06:58:35;;;;;;;0.50;0.40;;;16.00;98.40;;;;;;5074229;28;20519;-95
2022/07/11 07:01:05;;;;;;;0.60;0.50;;;16.20;97.50;;;;;;5074616;28;20968;-96
2022/07/11 07:03:34;;;;;;;0.53;0.47;;;16.30;97.00;;;;;;5078170;28;20474;-95
2022/07/11 07:06:02;;;;;;;0.70;0.40;;;16.30;97.10;;;;;;5075757;28;20640;-96
2022/07/11 07:08:31;;;;;;;2.70;1.00;;;16.60;98.10;;;;;;5078709;28;20466;-95
2022/07/11 07:10:58;;;;;;;0.50;0.50;;;16.60;97.00;;;;;;5081383;28;20635;-96
2022/07/11 07:13:28;;;;;;;3.07;1.00;;;16.90;96.50;;;;;;5075362;28;20893;-95
2022/07/11 07:15:56;;;;;;;1.40;0.43;;;17.10;96.80;;;;;;5075470;28;20556;-96
2022/07/11 07:18:24;;;;;;;0.40;0.30;;;17.20;95.20;;;;;;5070317;28;20457;-96
2022/07/11 07:20:51;;;;;;;0.50;0.50;;;17.00;95.10;;;;;;5074708;28;20461;-95
2022/07/11 07:23:18;;;;;;;0.40;0.30;;;17.10;95.80;;;;;;5073151;28;20557;-94
2022/07/11 07:25:47;;;;;;;0.67;0.43;;;17.30;96.50;;;;;;5075331;28;20474;-95
2022/07/11 07:28:14;;;;;;;0.40;0.40;;;17.40;95.80;;;;;;5073115;28;20522;-96
2022/07/11 07:30:41;;;;;;;2.10;0.50;;;17.50;95.80;;;;;;5082359;28;20485;-96
2022/07/11 07:33:08;;;;;;;0.60;0.50;;;17.70;96.20;;;;;;5080507;28;20452;-95
2022/07/11 07:35:35;;;;;;;0.60;0.40;;;17.80;95.30;;;;;;5083255;28;20473;-94
2022/07/11 07:38:06;;;;;;;1.00;0.50;;;17.90;96.20;;;;;;5076138;28;20567;-96
2022/07/11 07:40:33;;;;;;;0.50;0.40;;;17.70;94.90;;;;;;5072536;28;20575;-96
2022/07/11 07:43:02;;;;;;;1.23;0.40;;;17.40;94.90;;;;;;5071214;28;21072;-95
2022/07/11 07:45:30;;;;;;;0.50;0.40;;;17.90;95.20;;;;;;5068558;28;20804;-95
2022/07/11 07:47:57;;;;;;;0.80;0.50;;;18.50;94.30;;;;;;5071584;28;20450;-95
2022/07/11 07:50:24;;;;;;;1.53;0.63;;;18.50;93.80;;;;;;5070223;28;20574;-95
2022/07/11 07:52:51;;;;;;;0.40;0.33;;;18.40;93.20;;;;;;5075653;28;20891;-93
2022/07/11 07:55:18;;;;;;;1.17;0.50;;;18.50;93.70;;;;;;5075729;28;20463;-94
2022/07/11 07:57:45;;;;;;;0.60;0.30;;;18.40;92.90;;;;;;5081339;28;20454;-94
2022/07/11 08:03:05;;;;;;;0.40;0.40;;;18.20;93.60;;;;;;5077066;28;20454;-95
2022/07/11 08:05:32;;;;;;;0.50;0.40;;;18.20;93.70;;;;;;5083087;28;21125;-94
2022/07/11 08:07:59;;;;;;;1.30;0.40;;;18.70;93.80;;;;;;5078118;28;20470;-94
2022/07/11 08:10:26;;;;;;;1.37;0.33;;;19.00;92.80;;;;;;5076901;28;21020;-95
2022/07/11 08:12:53;;;;;;;0.50;0.30;;;19.10;92.80;;;;;;5085423;28;20514;-94
2022/07/11 08:15:22;;;;;;;0.90;0.40;;;18.90;92.50;;;;;;5090202;28;20436;-96
2022/07/11 08:17:49;;;;;;;0.80;0.40;;;19.10;93.10;;;;;;5088372;28;20529;-96
2022/07/11 08:20:16;;;;;;;0.70;0.30;;;19.70;91.50;;;;;;5085540;28;20459;-96
2022/07/11 08:22:43;;;;;;;2.43;0.70;;;19.80;91.00;;;;;;5076253;28;20717;-96
2022/07/11 08:25:10;;;;;;;0.60;0.50;;;19.70;91.40;;;;;;5087373;28;20930;-96
2022/07/11 08:27:40;;;;;;;0.40;0.30;;;19.40;90.30;;;;;;5081644;28;20463;-96
2022/07/11 08:30:08;;;;;;;0.60;0.40;;;19.30;90.60;;;;;;5075564;28;20486;-96
2022/07/11 08:32:39;;;;;;;1.23;0.40;;;19.30;92.00;;;;;;5078089;28;20475;-96
2022/07/11 08:35:07;;;;;;;2.33;0.60;;;19.30;92.30;;;;;;5078406;28;20450;-96
2022/07/11 08:37:36;;;;;;;0.50;0.40;;;19.10;91.30;;;;;;5074292;28;20536;-96
2022/07/11 08:40:03;;;;;;;0.90;0.43;;;18.70;91.70;;;;;;5079118;28;20513;-96
2022/07/11 08:42:47;;;;;;;0.50;0.40;;;18.30;92.30;;;;;;5077796;28;20455;-96
2022/07/11 08:45:15;;;;;;;0.50;0.40;;;18.30;92.80;;;;;;5088124;28;20450;-96
2022/07/11 08:47:45;;;;;;;1.17;0.70;;;18.00;93.30;;;;;;5081576;28;20924;-96
2022/07/11 08:50:13;;;;;;;2.40;0.70;;;18.10;93.40;;;;;;5081188;28;20580;-96
2022/07/11 08:52:41;;;;;;;7.90;1.80;;;18.00;94.10;;;;;;5077067;28;20735;-96
2022/07/11 08:55:09;;;;;;;0.40;0.30;;;18.10;94.60;;;;;;5081046;28;20539;-96
2022/07/11 08:57:37;;;;;;;1.43;0.43;;;18.40;94.20;;;;;;5081099;28;20467;-96
2022/07/11 09:00:06;;;;;;;0.67;0.30;;;18.70;92.70;;;;;;5088440;28;20451;-96
2022/07/11 09:02:34;;;;;;;1.23;0.40;;;18.80;92.50;;;;;;5084429;28;20467;-95
2022/07/11 09:05:05;;;;;;;1.30;0.50;;;19.00;92.30;;;;;;5078981;28;20447;-96
2022/07/11 09:07:33;;;;;;;0.60;0.50;;;19.80;93.50;;;;;;5076167;28;20446;-96
2022/07/11 09:10:15;;;;;;;2.30;0.60;;;20.00;91.90;;;;;;5102713;28;20466;-96
2022/07/11 09:13:02;;;;;;;0.60;0.40;;;20.00;90.90;;;;;;5106012;28;20446;-96
2022/07/11 09:15:38;;;;;;;0.70;0.40;;;19.40;90.90;;;;;;5088739;22;21917;-87
2022/07/11 09:18:07;;;;;;;0.60;0.40;;;19.40;91.40;;;;;;5055383;28;20458;-86
2022/07/11 09:26:36;;;;;;;0.60;0.40;;;19.40;91.20;;;;;;5057770;28;20450;-86
2022/07/11 09:29:06;;;;;;;0.50;0.50;;;19.00;91.30;;;;;;5054620;28;20472;-86
2022/07/11 09:31:34;;;;;;;0.40;0.40;;;18.90;91.40;;;;;;5055814;28;20480;-86
2022/07/11 09:34:04;;;;;;;0.50;0.30;;;19.00;91.60;;;;;;5060156;28;20471;-86
2022/07/11 09:36:44;;;;;;;1.90;0.40;;;18.90;91.50;;;;;;5061728;28;20449;-86
2022/07/11 09:39:13;;;;;;;0.87;0.33;;;18.60;91.80;;;;;;5059856;28;20471;-86
2022/07/11 09:41:41;;;;;;;0.50;0.40;;;18.40;92.70;;;;;;5053278;28;20522;-86
2022/07/11 09:44:16;;;;;;;1.13;0.40;;;18.40;92.50;;;;;;5054479;28;20490;-86
2022/07/11 09:46:46;;;;;;;1.43;0.90;;;18.40;92.70;;;;;;5052231;28;20492;-87
2022/07/11 09:49:14;;;;;;;1.17;0.80;;;18.30;93.00;;;;;;5055408;28;20464;-85
2022/07/11 09:51:43;;;;;;;0.93;0.43;;;18.40;93.00;;;;;;5050991;28;20889;-86
2022/07/11 09:54:11;;;;;;;0.70;0.50;;;18.40;93.10;;;;;;5056221;28;20870;-85
2022/07/11 09:56:41;;;;;;;0.50;0.40;;;18.50;93.10;;;;;;5051083;28;20536;-83
2022/07/11 09:59:12;;;;;;;0.43;0.33;;;18.60;93.70;;;;;;5051836;28;20472;-83
2022/07/11 10:01:39;;;;;;;0.80;0.50;;;19.10;93.60;;;;;;5051098;28;22076;-84
2022/07/11 10:04:08;;;;;;;0.80;0.43;;;19.10;93.00;;;;;;5052227;28;20863;-84
2022/07/11 10:06:37;;;;;;;0.83;0.50;;;19.20;93.20;;;;;;5055667;28;20471;-84
2022/07/11 10:09:06;;;;;;;0.50;0.50;;;19.70;93.10;;;;;;5056499;28;20465;-85
2022/07/11 10:11:35;;;;;;;0.50;0.50;;;19.50;91.40;;;;;;5063391;28;20502;-85
2022/07/11 10:14:04;;;;;;;0.70;0.57;;;19.40;91.60;;;;;;5066859;28;20516;-85
2022/07/11 10:16:42;;;;;;;0.53;0.40;;;19.00;92.20;;;;;;5073143;28;20464;-85
2022/07/11 10:19:28;;;;;;;0.40;0.40;;;19.20;93.80;;;;;;5073845;28;20461;-85
2022/07/11 10:22:06;;;;;;;1.57;0.40;;;19.30;93.20;;;;;;5056706;28;20470;-85
2022/07/11 10:24:41;;;;;;;0.93;0.40;;;19.10;92.70;;;;;;5058992;28;20548;-85
2022/07/11 10:27:16;;;;;;;0.50;0.30;;;19.10;93.40;;;;;;5058242;28;20594;-87
2022/07/11 10:29:49;;;;;;;0.50;0.40;;;18.80;93.10;;;;;;5062344;28;20472;-85
2022/07/11 10:32:17;;;;;;;1.17;0.30;;;19.00;93.90;;;;;;5059583;28;20511;-85
2022/07/11 10:34:44;;;;;;;0.87;0.40;;;19.20;93.90;;;;;;5061493;28;20499;-85
2022/07/11 10:37:12;;;;;;;0.50;0.30;;;19.10;93.70;;;;;;5065181;28;20453;-85
2022/07/11 10:39:58;;;;;;;2.30;1.47;;;19.20;94.70;;;;;;5062683;28;20463;-86
2022/07/11 10:42:39;;;;;;;0.87;0.60;;;18.80;94.80;;;;;;5066068;28;20941;-85
2022/07/11 10:45:09;;;;;;;0.40;0.30;;;18.50;95.80;;;;;;5063032;28;20463;-85
2022/07/11 10:47:43;;;;;;;0.50;0.40;;;18.20;96.40;;;;;;5064846;28;20463;-85
2022/07/11 10:50:31;;;;;;;3.27;0.50;;;18.10;97.30;;;;;;5063371;28;20460;-85
2022/07/11 10:52:58;;;;;;;0.70;0.40;;;17.50;99.10;;;;;;5064352;28;20512;-85
2022/07/11 10:55:36;;;;;;;0.50;0.50;;;16.90;99.90;;;;;;5059402;28;20468;-85
2022/07/11 10:58:19;;;;;;;0.60;0.50;;;16.60;99.90;;;;;;5064460;28;20472;-85
2022/07/11 11:00:47;;;;;;;0.70;0.50;;;16.50;99.90;;;;;;5056500;28;20462;-86
2022/07/11 11:03:17;;;;;;;0.50;0.40;;;16.30;99.90;;;;;;5053318;28;20843;-86
2022/07/11 11:05:52;;;;;;;1.07;0.53;;;16.60;99.90;;;;;;5057112;28;20498;-85
2022/07/11 11:08:44;;;;;;;0.57;0.43;;;16.70;99.90;;;;;;5060387;28;20491;-85
2022/07/11 11:11:41;;;;;;;0.63;0.60;;;16.70;99.90;;;;;;5062076;28;20481;-85
2022/07/11 11:14:19;;;;;;;0.70;0.70;;;16.80;99.90;;;;;;5066418;28;20517;-86
2022/07/11 11:16:47;;;;;;;0.90;0.70;;;17.10;99.90;;;;;;5064158;28;20498;-85
2022/07/11 11:19:47;;;;;;;1.07;0.53;;;17.30;99.90;;;;;;5065753;28;20524;-85
2022/07/11 11:22:15;;;;;;;0.57;0.53;;;17.60;99.90;;;;;;5062947;28;21080;-85
2022/07/11 11:24:44;;;;;;;0.90;0.50;;;17.70;99.90;;;;;;5066838;28;20462;-85
2022/07/11 11:27:19;;;;;;;0.60;0.50;;;17.90;99.90;;;;;;5064429;28;20519;-85
2022/07/11 11:29:46;;;;;;;3.60;0.60;;;17.80;99.90;;;;;;5053791;28;20557;-85
2022/07/11 11:32:13;;;;;;;0.87;0.50;;;17.70;99.90;;;;;;5061843;28;20998;-85
2022/07/11 11:34:41;;;;;;;0.60;0.60;;;17.70;99.90;;;;;;5062938;28;20462;-84
2022/07/11 11:37:09;;;;;;;0.43;0.40;;;17.60;99.90;;;;;;5066787;28;20470;-85
2022/07/11 11:39:39;;;;;;;2.83;0.50;;;17.90;99.90;;;;;;5065016;28;20470;-87
2022/07/11 11:42:08;;;;;;;0.40;0.40;;;18.20;99.90;;;;;;5055346;28;20468;-85
2022/07/11 11:44:52;;;;;;;0.50;0.50;;;18.40;99.90;;;;;;5062041;28;20474;-86
2022/07/11 11:47:20;;;;;;;0.50;0.40;;;18.70;99.90;;;;;;5066089;28;20954;-85
2022/07/11 11:49:49;;;;;;;0.50;0.40;;;19.50;99.50;;;;;;5064106;28;21042;-86
2022/07/11 11:52:17;;;;;;;1.60;0.70;;;19.30;96.50;;;;;;5066641;28;20479;-85
2022/07/11 11:54:45;;;;;;;0.40;0.30;;;19.00;98.80;;;;;;5065642;28;20463;-86
2022/07/11 11:57:13;;;;;;;1.17;0.50;;;18.40;98.60;;;;;;5059332;28;20464;-85
2022/07/11 11:59:42;;;;;;;0.50;0.40;;;18.30;98.90;;;;;;5064939;28;20456;-85
2022/07/11 12:02:10;;;;;;;0.40;0.30;;;18.30;99.00;;;;;;5063925;28;20800;-85
2022/07/11 12:04:37;;;;;;;0.60;0.40;;;18.30;99.20;;;;;;5061677;28;20470;-85
2022/07/11 12:07:05;;;;;;;0.40;0.30;;;18.30;98.40;;;;;;5061425;28;20464;-85
2022/07/11 12:09:49;;;;;;;0.50;0.50;;;18.40;98.20;;;;;;5062404;28;20451;-85
2022/07/11 12:15:22;;;;;;;1.33;0.40;;;18.90;97.70;;;;;;5060258;28;20524;-85
2022/07/11 12:17:52;;;;;;;0.67;0.37;;;19.30;96.50;;;;;;5060526;28;20542;-85
2022/07/11 12:20:35;;;;;;;0.40;0.30;;;19.30;96.80;;;;;;5062861;28;20821;-86
2022/07/11 12:23:04;;;;;;;1.00;0.40;;;19.00;95.80;;;;;;5066604;28;20451;-86
2022/07/11 12:25:31;;;;;;;0.60;0.40;;;18.90;95.90;;;;;;5058223;28;20457;-85
2022/07/11 12:27:58;;;;;;;3.90;0.40;;;18.80;96.80;;;;;;5067103;28;20467;-85
2022/07/11 12:30:27;;;;;;;0.40;0.30;;;18.70;95.90;;;;;;5061670;28;20537;-86
2022/07/11 12:33:08;;;;;;;3.43;0.40;;;18.90;95.90;;;;;;5064512;28;20486;-85
2022/07/11 12:35:36;;;;;;;0.40;0.30;;;19.10;95.60;;;;;;5057821;28;20460;-85
2022/07/11 12:38:04;;;;;;;0.80;0.60;;;19.30;95.70;;;;;;5063703;28;20505;-85
2022/07/11 12:40:31;;;;;;;0.50;0.40;;;19.30;95.40;;;;;;5057217;28;20463;-85
2022/07/11 12:42:58;;;;;;;0.50;0.50;;;19.40;95.60;;;;;;5063016;28;20509;-85
2022/07/11 12:45:24;;;;;;;0.50;0.37;;;19.50;95.80;;;;;;5068194;28;20514;-85
2022/07/11 12:47:53;;;;;;;0.50;0.40;;;19.40;94.80;;;;;;5055529;28;20459;-85
2022/07/11 12:50:22;;;;;;;0.50;0.43;;;19.40;95.60;;;;;;5053466;28;20538;-85
2022/07/11 12:52:51;;;;;;;0.50;0.40;;;19.50;95.60;;;;;;5069809;28;20490;-86
2022/07/11 12:55:28;;;;;;;1.23;0.40;;;19.40;94.20;;;;;;5067974;28;20501;-85
2022/07/11 12:58:03;;;;;;;1.53;0.47;;;19.10;95.20;;;;;;5059014;28;21123;-85
2022/07/11 13:00:31;;;;;;;0.50;0.50;;;19.10;95.40;;;;;;5066371;28;20447;-86
2022/07/11 13:03:00;;;;;;;0.60;0.50;;;19.10;94.30;;;;;;5061872;28;20545;-85
2022/07/11 13:05:27;;;;;;;0.60;0.40;;;19.10;94.40;;;;;;5055636;28;20492;-85
2022/07/11 13:13:19;;;;;;;2.50;0.40;;;19.40;94.80;;;;;;5068058;28;20699;-86
2022/07/11 13:15:47;;;;;;;0.40;0.37;;;19.50;94.70;;;;;;5081373;28;20483;-85